createdAt,value
2018-09-10T00:00:39.389Z,18.30
2018-09-10T00:01:43.778Z,18.30
2018-09-10T00:02:47.880Z,18.30
2018-09-10T00:03:51.937Z,18.30
2018-09-10T00:04:56.035Z,18.30
2018-09-10T00:06:00.214Z,18.40
2018-09-10T00:07:05.852Z,18.30
2018-09-10T00:08:11.714Z,18.30
2018-09-10T00:09:17.031Z,18.30
2018-09-10T00:10:21.134Z,18.20
2018-09-10T00:11:25.199Z,18.30
2018-09-10T00:12:29.745Z,18.30
2018-09-10T00:13:33.975Z,18.30
2018-09-10T00:14:38.300Z,18.30
2018-09-10T00:15:42.346Z,18.30
2018-09-10T00:16:46.342Z,18.30
2018-09-10T00:17:50.321Z,18.30
2018-09-10T00:18:55.058Z,18.30
2018-09-10T00:19:59.337Z,18.30
2018-09-10T00:21:03.402Z,18.20
2018-09-10T00:22:07.568Z,18.20
2018-09-10T00:23:11.705Z,18.20
2018-09-10T00:24:16.151Z,18.20
2018-09-10T00:25:20.289Z,18.20
2018-09-10T00:26:25.328Z,18.20
2018-09-10T00:27:29.406Z,18.20
2018-09-10T00:28:33.450Z,18.20
2018-09-10T00:29:37.504Z,18.10
2018-09-10T00:30:42.504Z,18.20
2018-09-10T00:31:46.510Z,18.20
2018-09-10T00:32:50.469Z,18.20
2018-09-10T00:33:54.917Z,18.20
2018-09-10T00:34:59.220Z,18.20
2018-09-10T00:36:03.240Z,18.10
2018-09-10T00:37:07.730Z,18.10
2018-09-10T00:38:11.802Z,18.10
2018-09-10T00:39:16.095Z,18.20
2018-09-10T00:40:20.518Z,18.20
2018-09-10T00:41:25.073Z,18.20
2018-09-10T00:42:29.321Z,18.20
2018-09-10T00:43:33.485Z,18.20
2018-09-10T00:44:37.540Z,18.20
2018-09-10T00:45:42.736Z,18.20
2018-09-10T00:46:46.818Z,18.20
2018-09-10T00:47:50.767Z,18.20
2018-09-10T00:48:54.847Z,18.20
2018-09-10T00:50:00.498Z,18.20
2018-09-10T00:51:09.101Z,18.20
2018-09-10T00:52:13.165Z,18.20
2018-09-10T00:53:17.254Z,18.20
2018-09-10T00:54:21.609Z,18.10
2018-09-10T00:55:25.626Z,18.10
2018-09-10T00:56:29.638Z,18.10
2018-09-10T00:57:33.849Z,18.20
2018-09-10T00:58:38.863Z,18.10
2018-09-10T00:59:43.372Z,18.10
2018-09-10T01:00:47.365Z,18.10
2018-09-10T01:01:51.462Z,18.10
2018-09-10T01:02:55.562Z,18.10
2018-09-10T01:04:00.510Z,18.00
2018-09-10T01:05:04.590Z,18.00
2018-09-10T01:06:08.621Z,18.00
2018-09-10T01:07:12.825Z,17.90
2018-09-10T01:08:17.129Z,17.90
2018-09-10T01:09:21.106Z,17.90
2018-09-10T01:10:25.314Z,17.90
2018-09-10T01:11:29.417Z,17.80
2018-09-10T01:12:33.487Z,17.80
2018-09-10T01:13:37.466Z,17.80
2018-09-10T01:14:41.769Z,17.80
2018-09-10T01:15:46.165Z,17.70
2018-09-10T01:16:50.288Z,17.80
2018-09-10T01:17:54.297Z,17.80
2018-09-10T01:18:58.661Z,17.80
2018-09-10T01:20:03.065Z,17.80
2018-09-10T01:21:07.765Z,17.90
2018-09-10T01:22:12.098Z,17.90
2018-09-10T01:23:16.485Z,17.90
2018-09-10T01:24:20.624Z,17.80
2018-09-10T01:25:24.643Z,17.90
2018-09-10T01:26:29.150Z,17.90
2018-09-10T01:27:33.614Z,17.90
2018-09-10T01:28:39.352Z,17.90
2018-09-10T01:29:43.361Z,17.90
2018-09-10T01:30:47.344Z,17.90
2018-09-10T01:31:51.836Z,17.90
2018-09-10T01:32:57.169Z,17.90
2018-09-10T01:34:06.380Z,18.00
2018-09-10T01:35:10.383Z,18.00
2018-09-10T01:36:14.384Z,18.00
2018-09-10T01:37:18.693Z,18.00
2018-09-10T01:38:23.059Z,18.00
2018-09-10T01:39:27.299Z,18.00
2018-09-10T01:40:31.639Z,18.00
2018-09-10T01:41:35.992Z,18.00
2018-09-10T01:42:41.801Z,18.00
2018-09-10T01:43:46.221Z,18.00
2018-09-10T01:44:50.184Z,18.00
2018-09-10T01:45:54.200Z,18.00
2018-09-10T01:46:59.079Z,17.90
2018-09-10T01:48:03.094Z,17.90
2018-09-10T01:49:07.629Z,17.90
2018-09-10T01:50:11.803Z,18.00
2018-09-10T01:51:16.235Z,17.90
2018-09-10T01:52:20.210Z,17.90
2018-09-10T01:53:24.732Z,17.90
2018-09-10T01:54:28.982Z,17.90
2018-09-10T01:55:33.112Z,17.90
2018-09-10T01:56:37.295Z,17.90
2018-09-10T01:57:42.365Z,17.90
2018-09-10T01:58:46.393Z,18.00
2018-09-10T01:59:50.627Z,18.00
2018-09-10T02:00:54.643Z,18.00
2018-09-10T02:01:58.610Z,18.00
2018-09-10T02:03:03.645Z,18.00
2018-09-10T02:04:07.714Z,17.90
2018-09-10T02:05:11.690Z,18.00
2018-09-10T02:06:15.772Z,17.90
2018-09-10T02:07:20.345Z,17.90
2018-09-10T02:08:24.357Z,17.90
2018-09-10T02:09:28.345Z,17.90
2018-09-10T02:10:32.394Z,17.90
2018-09-10T02:11:36.408Z,17.90
2018-09-10T02:12:40.495Z,17.90
2018-09-10T02:13:44.517Z,17.90
2018-09-10T02:14:48.645Z,17.90
2018-09-10T02:15:53.241Z,17.90
2018-09-10T02:16:57.504Z,17.90
2018-09-10T02:18:01.805Z,17.90
2018-09-10T02:19:06.137Z,17.90
2018-09-10T02:20:10.412Z,17.90
2018-09-10T02:21:15.235Z,17.90
2018-09-10T02:22:19.361Z,17.90
2018-09-10T02:23:23.312Z,17.90
2018-09-10T02:24:27.322Z,17.90
2018-09-10T02:25:31.514Z,17.80
2018-09-10T02:26:35.797Z,17.80
2018-09-10T02:27:41.281Z,17.80
2018-09-10T02:28:45.424Z,17.80
2018-09-10T02:29:49.393Z,17.90
2018-09-10T02:30:53.560Z,17.90
2018-09-10T02:31:57.560Z,17.80
2018-09-10T02:33:01.596Z,17.80
2018-09-10T02:34:05.689Z,17.90
2018-09-10T02:35:09.987Z,17.90
2018-09-10T02:36:13.925Z,17.80
2018-09-10T02:37:18.537Z,17.80
2018-09-10T02:38:22.775Z,17.80
2018-09-10T02:39:26.936Z,17.80
2018-09-10T02:40:30.939Z,17.80
2018-09-10T02:41:40.121Z,17.80
2018-09-10T02:42:44.142Z,17.80
2018-09-10T02:43:48.133Z,17.80
2018-09-10T02:44:52.158Z,17.80
2018-09-10T02:45:56.145Z,17.80
2018-09-10T02:47:00.242Z,17.80
2018-09-10T02:48:04.238Z,17.80
2018-09-10T02:49:08.233Z,17.80
2018-09-10T02:50:12.279Z,17.80
2018-09-10T02:51:16.476Z,17.80
2018-09-10T02:52:20.675Z,17.80
2018-09-10T02:53:24.998Z,17.80
2018-09-10T02:54:28.999Z,17.80
2018-09-10T02:55:33.140Z,17.80
2018-09-10T02:56:38.475Z,17.80
2018-09-10T02:57:42.669Z,17.80
2018-09-10T02:58:46.720Z,17.90
2018-09-10T02:59:50.791Z,17.80
2018-09-10T03:00:54.893Z,17.90
2018-09-10T03:01:58.894Z,17.90
2018-09-10T03:03:02.867Z,17.90
2018-09-10T03:04:07.292Z,17.90
2018-09-10T03:05:11.471Z,17.90
2018-09-10T03:06:15.505Z,17.80
2018-09-10T03:07:19.517Z,17.80
2018-09-10T03:08:23.721Z,17.80
2018-09-10T03:09:27.802Z,17.80
2018-09-10T03:10:31.900Z,17.80
2018-09-10T03:11:35.913Z,17.80
2018-09-10T03:12:39.882Z,17.80
2018-09-10T03:13:43.949Z,17.80
2018-09-10T03:14:48.095Z,17.70
2018-09-10T03:15:52.195Z,17.80
2018-09-10T03:16:56.185Z,17.70
2018-09-10T03:18:00.364Z,17.70
2018-09-10T03:19:04.281Z,17.60
2018-09-10T03:20:08.449Z,17.60
2018-09-10T03:21:12.470Z,17.60
2018-09-10T03:22:16.738Z,17.60
2018-09-10T03:23:20.818Z,17.50
2018-09-10T03:24:25.777Z,17.50
2018-09-10T03:25:29.874Z,17.50
2018-09-10T03:26:33.897Z,17.50
2018-09-10T03:27:38.149Z,17.50
2018-09-10T03:29:44.649Z,17.50
2018-09-10T03:30:49.370Z,17.50
2018-09-10T03:31:53.361Z,17.50
2018-09-10T03:32:57.388Z,17.50
2018-09-10T03:34:01.441Z,17.50
2018-09-10T03:35:05.483Z,17.50
2018-09-10T03:36:09.636Z,17.50
2018-09-10T03:37:13.684Z,17.50
2018-09-10T03:38:18.716Z,17.50
2018-09-10T03:39:23.788Z,17.40
2018-09-10T03:42:24.465Z,17.40
2018-09-10T03:43:28.475Z,17.40
2018-09-10T03:44:32.811Z,17.40
2018-09-10T03:45:36.849Z,17.40
2018-09-10T03:46:40.954Z,17.40
2018-09-10T03:47:45.015Z,17.40
2018-09-10T03:48:49.104Z,17.40
2018-09-10T03:49:53.349Z,17.40
2018-09-10T03:50:57.385Z,17.40
2018-09-10T03:52:01.464Z,17.40
2018-09-10T03:53:05.706Z,17.40
2018-09-10T03:54:09.712Z,17.40
2018-09-10T03:55:13.739Z,17.40
2018-09-10T03:56:17.765Z,17.40
2018-09-10T03:57:21.827Z,17.40
2018-09-10T03:58:26.074Z,17.40
2018-09-10T03:59:30.809Z,17.50
2018-09-10T04:00:34.896Z,17.50
2018-09-10T04:01:39.087Z,17.50
2018-09-10T04:02:43.132Z,17.50
2018-09-10T04:03:47.401Z,17.50
2018-09-10T04:04:52.335Z,17.60
2018-09-10T04:05:56.345Z,17.50
2018-09-10T04:07:00.442Z,17.50
2018-09-10T04:08:04.526Z,17.50
2018-09-10T04:09:09.483Z,17.60
2018-09-10T04:10:13.797Z,17.50
2018-09-10T04:11:18.084Z,17.50
2018-09-10T04:12:22.138Z,17.50
2018-09-10T04:13:26.721Z,17.50
2018-09-10T04:14:32.747Z,17.50
2018-09-10T04:15:37.089Z,17.60
2018-09-10T04:16:41.552Z,17.60
2018-09-10T04:17:45.916Z,17.60
2018-09-10T04:18:50.281Z,17.50
2018-09-10T04:20:00.386Z,17.60
2018-09-10T04:21:05.794Z,17.60
2018-09-10T04:22:10.433Z,17.50
2018-09-10T04:23:14.977Z,17.50
2018-09-10T04:24:19.031Z,17.50
2018-09-10T04:25:23.511Z,17.50
2018-09-10T04:26:28.289Z,17.50
2018-09-10T04:27:32.587Z,17.60
2018-09-10T04:28:36.743Z,17.50
2018-09-10T04:29:40.822Z,17.60
2018-09-10T04:30:45.323Z,17.50
2018-09-10T04:31:52.546Z,17.60
2018-09-10T04:32:56.862Z,17.50
2018-09-10T04:34:01.294Z,17.50
2018-09-10T04:35:05.650Z,17.50
2018-09-10T04:36:10.081Z,17.50
2018-09-10T04:37:14.909Z,17.40
2018-09-10T04:38:19.539Z,17.40
2018-09-10T04:39:23.797Z,17.40
2018-09-10T04:40:28.209Z,17.40
2018-09-10T04:41:37.211Z,17.40
2018-09-10T04:42:41.500Z,17.50
2018-09-10T04:43:46.313Z,17.50
2018-09-10T04:44:51.169Z,17.50
2018-09-10T04:45:55.782Z,17.50
2018-09-10T04:47:00.318Z,17.50
2018-09-10T04:48:04.632Z,17.50
2018-09-10T04:49:10.760Z,17.50
2018-09-10T04:50:14.789Z,17.50
2018-09-10T04:51:19.568Z,17.60
2018-09-10T04:52:23.622Z,17.50
2018-09-10T04:53:29.133Z,17.50
2018-09-10T04:54:33.151Z,17.50
2018-09-10T04:55:37.223Z,17.50
2018-09-10T04:56:43.242Z,17.50
2018-09-10T04:57:47.427Z,17.50
2018-09-10T04:58:51.546Z,17.50
2018-09-10T04:59:55.762Z,17.50
2018-09-10T05:01:01.189Z,17.60
2018-09-10T05:02:05.686Z,17.60
2018-09-10T05:03:10.002Z,17.60
2018-09-10T05:04:14.307Z,17.50
2018-09-10T05:05:19.223Z,17.60
2018-09-10T05:06:23.572Z,17.50
2018-09-10T05:07:28.511Z,17.60
2018-09-10T05:08:32.536Z,17.50
2018-09-10T05:09:38.452Z,17.50
2018-09-10T05:10:42.671Z,17.50
2018-09-10T05:11:46.875Z,17.50
2018-09-10T05:12:51.005Z,17.40
2018-09-10T05:13:55.360Z,17.50
2018-09-10T05:15:00.063Z,17.50
2018-09-10T05:16:07.297Z,17.40
2018-09-10T05:17:11.488Z,17.50
2018-09-10T05:18:15.515Z,17.50
2018-09-10T05:19:19.712Z,17.50
2018-09-10T05:20:23.769Z,17.40
2018-09-10T05:21:28.212Z,17.50
2018-09-10T05:22:32.272Z,17.50
2018-09-10T05:23:36.306Z,17.50
2018-09-10T05:24:40.348Z,17.50
2018-09-10T05:25:44.367Z,17.50
2018-09-10T05:26:48.366Z,17.50
2018-09-10T05:27:52.401Z,17.50
2018-09-10T05:28:56.491Z,17.50
2018-09-10T05:30:00.540Z,17.50
2018-09-10T05:31:04.720Z,17.50
2018-09-10T05:32:08.833Z,17.40
2018-09-10T05:33:12.847Z,17.40
2018-09-10T05:34:16.864Z,17.40
2018-09-10T05:36:30.806Z,17.40
2018-09-10T05:37:34.907Z,17.30
2018-09-10T05:38:38.929Z,17.40
2018-09-10T05:39:43.256Z,17.40
2018-09-10T05:40:47.346Z,17.40
2018-09-10T05:41:51.653Z,17.40
2018-09-10T05:42:55.964Z,17.50
2018-09-10T05:44:00.010Z,17.50
2018-09-10T05:45:34.966Z,17.50
2018-09-10T05:46:39.047Z,17.50
2018-09-10T05:47:43.682Z,17.60
2018-09-10T05:48:48.433Z,17.60
2018-09-10T05:49:56.548Z,17.60
2018-09-10T05:51:02.176Z,17.60
2018-09-10T05:52:08.653Z,17.60
2018-09-10T05:53:12.896Z,17.60
2018-09-10T05:54:16.976Z,17.80
2018-09-10T05:55:21.782Z,17.60
2018-09-10T05:56:25.811Z,17.70
2018-09-10T05:57:30.359Z,17.70
2018-09-10T05:58:35.251Z,17.70
2018-09-10T05:59:41.685Z,17.70
2018-09-10T06:00:47.919Z,17.70
2018-09-10T06:01:54.967Z,17.70
2018-09-10T06:02:59.160Z,17.70
2018-09-10T06:04:04.292Z,17.70
2018-09-10T06:05:08.664Z,17.70
2018-09-10T06:06:12.674Z,17.70
2018-09-10T06:07:18.739Z,17.70
2018-09-10T06:08:22.891Z,17.70
2018-09-10T06:09:27.175Z,17.70
2018-09-10T06:10:31.281Z,17.70
2018-09-10T06:11:35.342Z,17.70
2018-09-10T06:12:39.665Z,17.70
2018-09-10T06:13:43.664Z,17.70
2018-09-10T06:14:47.739Z,17.80
2018-09-10T06:15:51.771Z,17.80
2018-09-10T06:16:55.800Z,17.80
2018-09-10T06:17:59.799Z,17.80
2018-09-10T06:19:05.071Z,17.80
2018-09-10T06:20:10.499Z,17.80
2018-09-10T06:21:14.580Z,17.90
2018-09-10T06:22:19.875Z,17.90
2018-09-10T06:23:24.599Z,17.80
2018-09-10T06:24:28.662Z,17.90
2018-09-10T06:25:34.471Z,17.90
2018-09-10T06:26:39.087Z,17.90
2018-09-10T06:27:43.218Z,17.90
2018-09-10T06:28:47.737Z,17.90
2018-09-10T06:29:53.591Z,17.90
2018-09-10T06:30:58.016Z,17.90
2018-09-10T06:32:02.274Z,17.80
2018-09-10T06:33:06.770Z,17.80
2018-09-10T06:34:12.677Z,17.80
2018-09-10T06:35:19.421Z,17.80
2018-09-10T06:36:23.746Z,17.80
2018-09-10T06:37:28.922Z,17.80
2018-09-10T06:38:33.735Z,17.90
2018-09-10T06:39:37.995Z,17.90
2018-09-10T06:40:42.694Z,17.90
2018-09-10T06:41:48.302Z,17.90
2018-09-10T06:42:52.370Z,17.90
2018-09-10T06:43:56.534Z,18.00
2018-09-10T06:45:00.623Z,18.00
2018-09-10T06:46:04.636Z,18.10
2018-09-10T06:47:08.678Z,18.10
2018-09-10T06:48:12.678Z,18.10
2018-09-10T06:49:17.637Z,18.10
2018-09-10T06:50:21.730Z,18.10
2018-09-10T06:51:25.764Z,18.20
2018-09-10T06:52:29.753Z,18.20
2018-09-10T06:53:33.770Z,18.20
2018-09-10T06:54:37.790Z,18.20
2018-09-10T06:55:41.823Z,18.20
2018-09-10T06:56:45.832Z,18.30
2018-09-10T06:57:49.899Z,18.30
2018-09-10T06:58:54.165Z,18.30
2018-09-10T06:59:58.318Z,18.30
2018-09-10T07:01:03.104Z,18.30
2018-09-10T07:02:07.174Z,18.30
2018-09-10T07:03:11.201Z,18.30
2018-09-10T07:04:15.214Z,18.30
2018-09-10T07:05:19.205Z,18.40
2018-09-10T07:06:24.618Z,18.40
2018-09-10T07:07:30.791Z,18.40
2018-09-10T07:08:34.908Z,18.50
2018-09-10T07:09:40.206Z,18.50
2018-09-10T07:10:44.210Z,18.50
2018-09-10T07:11:48.946Z,18.50
2018-09-10T07:12:53.952Z,18.50
2018-09-10T07:13:57.994Z,18.50
2018-09-10T07:15:02.002Z,18.50
2018-09-10T07:16:06.072Z,18.50
2018-09-10T07:17:10.268Z,18.50
2018-09-10T07:18:14.245Z,18.50
2018-09-10T07:19:18.338Z,18.50
2018-09-10T07:20:22.358Z,18.60
2018-09-10T07:21:26.404Z,18.60
2018-09-10T07:22:30.522Z,18.60
2018-09-10T07:23:34.566Z,18.60
2018-09-10T07:24:39.298Z,18.60
2018-09-10T07:25:43.345Z,18.60
2018-09-10T07:26:47.422Z,18.60
2018-09-10T07:27:52.647Z,18.60
2018-09-10T07:28:58.017Z,18.60
2018-09-10T07:30:02.326Z,18.60
2018-09-10T07:31:09.779Z,16.60
2018-09-10T07:32:14.385Z,18.50
2018-09-10T07:33:21.675Z,18.60
2018-09-10T07:34:26.875Z,18.60
2018-09-10T07:35:33.674Z,18.60
2018-09-10T07:36:43.265Z,18.60
2018-09-10T07:37:52.325Z,18.70
2018-09-10T07:38:57.169Z,18.70
2018-09-10T07:40:01.957Z,18.70
2018-09-10T07:41:06.095Z,18.60
2018-09-10T07:42:10.196Z,18.60
2018-09-10T07:43:14.607Z,18.80
2018-09-10T07:44:18.692Z,18.60
2018-09-10T07:45:25.375Z,18.60
2018-09-10T07:46:29.410Z,18.60
2018-09-10T07:47:33.445Z,18.70
2018-09-10T07:48:37.511Z,18.70
2018-09-10T07:49:41.619Z,18.70
2018-09-10T07:50:45.690Z,18.70
2018-09-10T07:51:49.720Z,18.70
2018-09-10T07:52:53.985Z,18.90
2018-09-10T07:53:58.035Z,18.70
2018-09-10T07:55:02.262Z,18.70
2018-09-10T07:56:06.559Z,18.70
2018-09-10T07:57:10.610Z,18.80
2018-09-10T07:58:14.698Z,18.80
2018-09-10T07:59:18.742Z,18.80
2018-09-10T08:00:22.799Z,18.90
2018-09-10T08:01:27.855Z,18.80
2018-09-10T08:02:33.477Z,18.90
2018-09-10T08:05:02.426Z,19.00
2018-09-10T08:06:12.144Z,19.00
2018-09-10T08:07:16.431Z,19.00
2018-09-10T08:08:23.533Z,19.00
2018-09-10T08:09:27.675Z,19.00
2018-09-10T08:10:31.678Z,19.00
2018-09-10T08:11:35.739Z,19.00
2018-09-10T08:12:39.963Z,19.00
2018-09-10T08:13:44.174Z,19.00
2018-09-10T08:14:48.203Z,19.10
2018-09-10T08:15:52.624Z,19.10
2018-09-10T08:16:56.620Z,19.10
2018-09-10T08:18:03.671Z,19.10
2018-09-10T08:19:08.173Z,19.10
2018-09-10T08:20:13.339Z,19.10
2018-09-10T08:21:17.403Z,19.10
2018-09-10T08:22:21.410Z,19.10
2018-09-10T08:23:29.176Z,19.10
2018-09-10T08:24:34.361Z,19.10
2018-09-10T08:25:40.014Z,19.10
2018-09-10T08:26:45.681Z,19.20
2018-09-10T08:27:49.642Z,19.20
2018-09-10T08:28:53.644Z,19.20
2018-09-10T08:29:59.724Z,19.20
2018-09-10T08:31:10.418Z,19.20
2018-09-10T08:32:14.637Z,19.30
2018-09-10T08:33:20.570Z,19.30
2018-09-10T08:34:24.662Z,19.30
2018-09-10T08:35:29.310Z,19.30
2018-09-10T08:36:34.450Z,19.30
2018-09-10T08:37:38.826Z,19.30
2018-09-10T08:38:44.133Z,19.30
2018-09-10T08:39:48.193Z,19.30
2018-09-10T08:40:52.355Z,19.20
2018-09-10T08:41:56.390Z,19.20
2018-09-10T08:43:01.459Z,19.20
2018-09-10T08:44:05.549Z,19.30
2018-09-10T08:45:09.841Z,19.30
2018-09-10T08:46:14.355Z,19.30
2018-09-10T08:47:20.466Z,19.30
2018-09-10T08:48:24.666Z,19.30
2018-09-10T08:49:28.646Z,19.30
2018-09-10T08:50:33.849Z,19.40
2018-09-10T08:51:38.795Z,19.40
2018-09-10T08:53:55.011Z,19.40
2018-09-10T08:55:02.902Z,19.50
2018-09-10T08:56:06.913Z,19.50
2018-09-10T08:57:13.167Z,19.50
2018-09-10T08:58:17.458Z,19.60
2018-09-10T08:59:22.121Z,19.60
2018-09-10T09:00:28.378Z,19.60
2018-09-10T09:01:32.448Z,19.60
2018-09-10T09:02:36.447Z,19.60
2018-09-10T09:03:40.887Z,19.70
2018-09-10T09:04:44.936Z,19.70
2018-09-10T09:05:48.978Z,19.70
2018-09-10T09:06:55.591Z,19.80
2018-09-10T09:08:00.070Z,19.90
2018-09-10T09:09:04.892Z,19.90
2018-09-10T09:10:08.987Z,19.90
2018-09-10T09:11:13.109Z,19.90
2018-09-10T09:12:18.617Z,20.00
2018-09-10T09:13:22.695Z,20.00
2018-09-10T09:14:26.716Z,20.00
2018-09-10T09:15:30.899Z,20.00
2018-09-10T09:16:34.922Z,20.00
2018-09-10T09:17:39.017Z,20.10
2018-09-10T09:18:43.894Z,20.10
2018-09-10T09:19:47.905Z,20.10
2018-09-10T09:20:52.004Z,20.10
2018-09-10T09:21:56.243Z,20.20
2018-09-10T09:23:00.276Z,20.20
2018-09-10T09:24:04.380Z,20.30
2018-09-10T09:25:10.310Z,20.30
2018-09-10T09:26:15.137Z,20.30
2018-09-10T09:27:19.437Z,20.30
2018-09-10T09:28:25.359Z,20.30
2018-09-10T09:29:32.740Z,20.40
2018-09-10T09:30:37.004Z,20.40
2018-09-10T09:31:41.298Z,20.40
2018-09-10T09:32:46.201Z,20.40
2018-09-10T09:33:51.183Z,20.40
2018-09-10T09:34:57.858Z,20.50
2018-09-10T09:36:07.990Z,20.50
2018-09-10T09:37:17.921Z,20.50
2018-09-10T09:38:27.971Z,20.50
2018-09-10T09:39:37.266Z,20.60
2018-09-10T09:42:53.184Z,20.60
2018-09-10T09:44:02.947Z,20.60
2018-09-10T09:45:12.372Z,20.70
2018-09-10T09:46:20.623Z,20.70
2018-09-10T09:47:25.490Z,20.70
2018-09-10T09:48:31.534Z,20.70
2018-09-10T09:49:37.055Z,20.80
2018-09-10T09:50:46.384Z,20.80
2018-09-10T09:51:54.828Z,20.80
2018-09-10T09:53:02.828Z,20.80
2018-09-10T09:54:07.205Z,20.90
2018-09-10T09:55:23.552Z,20.90
2018-09-10T09:56:29.708Z,20.70
2018-09-10T09:57:47.284Z,21.00
2018-09-10T09:58:58.268Z,21.00
2018-09-10T10:00:04.368Z,21.00
2018-09-10T10:01:15.084Z,21.10
2018-09-10T10:02:22.028Z,21.10
2018-09-10T10:03:35.336Z,21.10
2018-09-10T10:04:42.559Z,21.10
2018-09-10T10:05:52.519Z,21.10
2018-09-10T10:06:57.184Z,21.20
2018-09-10T10:08:03.348Z,21.20
2018-09-10T10:09:12.091Z,21.00
2018-09-10T10:10:21.279Z,21.20
2018-09-10T10:11:27.836Z,21.10
2018-09-10T10:12:31.949Z,21.10
2018-09-10T10:13:36.178Z,21.10
2018-09-10T10:14:41.751Z,21.20
2018-09-10T10:15:49.792Z,21.20
2018-09-10T10:17:06.415Z,21.30
2018-09-10T10:18:11.963Z,21.30
2018-09-10T10:19:17.084Z,21.40
2018-09-10T10:20:31.105Z,21.50
2018-09-10T10:21:38.694Z,21.60
2018-09-10T10:22:44.215Z,21.60
2018-09-10T10:23:50.815Z,21.70
2018-09-10T10:25:00.088Z,21.80
2018-09-10T10:26:05.204Z,21.80
2018-09-10T10:27:09.315Z,21.90
2018-09-10T10:28:18.169Z,22.00
2018-09-10T10:29:22.979Z,22.00
2018-09-10T10:30:44.045Z,22.00
2018-09-10T10:31:49.313Z,22.00
2018-09-10T10:32:54.833Z,22.10
2018-09-10T10:36:10.640Z,22.10
2018-09-10T10:37:14.999Z,22.10
2018-09-10T10:38:21.164Z,22.20
2018-09-10T10:39:26.127Z,22.20
2018-09-10T10:40:34.780Z,22.30
2018-09-10T10:41:40.222Z,22.30
2018-09-10T10:42:48.335Z,22.30
2018-09-10T10:43:59.706Z,22.30
2018-09-10T10:45:21.556Z,22.40
2018-09-10T10:46:26.942Z,22.40
2018-09-10T10:47:32.165Z,22.50
2018-09-10T10:48:40.573Z,22.50
2018-09-10T10:49:46.303Z,22.60
2018-09-10T10:52:23.417Z,22.70
2018-09-10T10:55:07.705Z,22.80
2018-09-10T10:56:15.033Z,22.80
2018-09-10T10:57:23.443Z,22.80
2018-09-10T10:58:32.876Z,22.90
2018-09-10T10:59:41.512Z,22.90
2018-09-10T11:00:48.177Z,22.90
2018-09-10T11:01:53.191Z,23.00
2018-09-10T11:03:02.016Z,23.00
2018-09-10T11:04:07.751Z,23.00
2018-09-10T11:05:12.775Z,23.00
2018-09-10T11:06:17.313Z,23.00
2018-09-10T11:07:21.786Z,23.10
2018-09-10T11:08:29.172Z,23.10
2018-09-10T11:09:33.271Z,23.10
2018-09-10T11:10:37.426Z,23.20
2018-09-10T11:11:45.187Z,23.20
2018-09-10T11:12:49.645Z,23.20
2018-09-10T11:13:56.566Z,23.30
2018-09-10T11:15:00.732Z,23.40
2018-09-10T11:16:05.162Z,23.40
2018-09-10T11:17:09.253Z,23.40
2018-09-10T11:18:14.103Z,23.40
2018-09-10T11:19:20.350Z,23.30
2018-09-10T11:20:32.244Z,23.20
2018-09-10T11:21:40.256Z,23.10
2018-09-10T11:22:49.591Z,23.20
2018-09-10T11:23:54.792Z,23.20
2018-09-10T11:25:02.349Z,23.30
2018-09-10T11:26:10.787Z,23.30
2018-09-10T11:27:19.178Z,23.40
2018-09-10T11:28:26.239Z,23.50
2018-09-10T11:29:30.646Z,23.60
2018-09-10T11:30:35.087Z,23.70
2018-09-10T11:31:40.628Z,23.70
2018-09-10T11:32:51.760Z,23.70
2018-09-10T11:33:58.761Z,23.70
2018-09-10T11:35:05.876Z,23.70
2018-09-10T11:36:10.388Z,23.70
2018-09-10T11:37:16.466Z,23.70
2018-09-10T11:38:22.257Z,23.70
2018-09-10T11:39:26.783Z,23.70
2018-09-10T11:40:31.023Z,23.60
2018-09-10T11:41:36.734Z,23.60
2018-09-10T11:42:47.831Z,23.60
2018-09-10T11:43:52.315Z,23.50
2018-09-10T11:44:58.521Z,23.50
2018-09-10T11:46:05.153Z,23.40
2018-09-10T11:47:11.443Z,23.40
2018-09-10T11:48:15.747Z,23.30
2018-09-10T11:49:20.177Z,23.30
2018-09-10T11:50:26.368Z,23.30
2018-09-10T11:51:42.784Z,23.20
2018-09-10T11:52:50.640Z,23.20
2018-09-10T11:54:16.588Z,23.20
2018-09-10T11:55:22.747Z,23.20
2018-09-10T11:56:27.610Z,23.10
2018-09-10T11:57:33.805Z,23.10
2018-09-10T11:58:41.967Z,23.10
2018-09-10T11:59:47.556Z,23.10
2018-09-10T12:00:54.668Z,23.10
2018-09-10T12:02:02.738Z,23.10
2018-09-10T12:03:10.636Z,23.20
2018-09-10T12:04:21.348Z,23.20
2018-09-10T12:05:28.158Z,23.30
2018-09-10T12:06:33.977Z,23.30
2018-09-10T12:07:38.150Z,23.40
2018-09-10T12:08:43.424Z,23.50
2018-09-10T12:09:48.147Z,23.70
2018-09-10T12:10:53.112Z,23.80
2018-09-10T12:12:01.374Z,23.90
2018-09-10T12:13:07.651Z,23.90
2018-09-10T12:14:13.001Z,23.90
2018-09-10T12:15:24.586Z,24.00
2018-09-10T12:16:31.337Z,24.00
2018-09-10T12:17:38.633Z,24.10
2018-09-10T12:18:42.730Z,24.10
2018-09-10T12:19:47.828Z,24.20
2018-09-10T12:20:52.944Z,24.30
2018-09-10T12:21:58.214Z,24.40
2018-09-10T12:23:04.100Z,24.40
2018-09-10T12:24:11.441Z,24.50
2018-09-10T12:25:18.536Z,24.50
2018-09-10T12:26:28.035Z,24.50
2018-09-10T12:27:38.905Z,24.50
2018-09-10T12:28:42.964Z,24.50
2018-09-10T12:29:47.436Z,24.60
2018-09-10T12:30:54.336Z,24.60
2018-09-10T12:32:05.575Z,24.50
2018-09-10T12:33:14.995Z,24.50
2018-09-10T12:34:19.183Z,24.40
2018-09-10T12:35:23.332Z,24.40
2018-09-10T12:36:30.043Z,24.40
2018-09-10T12:37:40.776Z,24.30
2018-09-10T12:38:48.128Z,24.20
2018-09-10T12:39:52.872Z,24.30
2018-09-10T12:41:00.805Z,24.20
2018-09-10T12:42:05.583Z,24.10
2018-09-10T12:43:13.029Z,24.10
2018-09-10T12:44:17.553Z,24.00
2018-09-10T12:45:23.646Z,23.90
2018-09-10T12:46:30.473Z,23.80
2018-09-10T12:47:36.634Z,23.80
2018-09-10T12:48:44.321Z,23.70
2018-09-10T12:49:54.960Z,23.60
2018-09-10T12:51:00.626Z,23.50
2018-09-10T12:52:09.854Z,23.50
2018-09-10T12:53:15.292Z,23.40
2018-09-10T12:54:23.530Z,23.40
2018-09-10T12:55:33.473Z,23.30
2018-09-10T12:56:42.601Z,23.30
2018-09-10T12:57:54.146Z,23.30
2018-09-10T12:58:59.150Z,23.20
2018-09-10T13:00:05.967Z,23.20
2018-09-10T13:01:13.406Z,23.20
2018-09-10T13:02:24.602Z,23.10
2018-09-10T13:03:28.790Z,23.10
2018-09-10T13:04:34.823Z,23.10
2018-09-10T13:05:38.913Z,23.10
2018-09-10T13:06:48.197Z,23.10
2018-09-10T13:08:01.620Z,23.10
2018-09-10T13:09:10.434Z,23.10
2018-09-10T13:10:15.520Z,23.10
2018-09-10T13:11:20.361Z,23.00
2018-09-10T13:12:25.092Z,23.10
2018-09-10T13:13:30.942Z,23.10
2018-09-10T13:14:38.214Z,23.00
2018-09-10T13:15:43.476Z,23.10
2018-09-10T13:16:48.142Z,23.10
2018-09-10T13:17:56.415Z,23.10
2018-09-10T13:19:03.223Z,23.10
2018-09-10T13:20:08.797Z,23.10
2018-09-10T13:21:13.522Z,23.10
2018-09-10T13:22:17.918Z,23.10
2018-09-10T13:23:26.448Z,23.00
2018-09-10T13:24:34.190Z,23.00
2018-09-10T13:25:42.728Z,23.00
2018-09-10T13:26:47.781Z,22.90
2018-09-10T13:27:51.791Z,22.90
2018-09-10T13:28:56.544Z,22.80
2018-09-10T13:30:03.070Z,22.80
2018-09-10T13:31:08.488Z,22.70
2018-09-10T13:32:17.713Z,22.70
2018-09-10T13:33:25.175Z,22.70
2018-09-10T13:34:29.232Z,22.70
2018-09-10T13:35:33.642Z,22.70
2018-09-10T13:36:39.992Z,22.70
2018-09-10T13:37:45.017Z,22.70
2018-09-10T13:38:50.143Z,22.70
2018-09-10T13:39:54.456Z,22.70
2018-09-10T13:40:59.931Z,22.70
2018-09-10T13:42:04.050Z,22.80
2018-09-10T13:43:09.400Z,22.80
2018-09-10T13:44:13.612Z,22.80
2018-09-10T13:45:18.177Z,22.70
2018-09-10T13:46:22.380Z,22.80
2018-09-10T13:47:27.441Z,22.80
2018-09-10T13:48:32.002Z,22.90
2018-09-10T13:49:37.208Z,22.90
2018-09-10T13:50:41.378Z,22.90
2018-09-10T13:51:46.000Z,22.90
2018-09-10T13:52:53.310Z,22.90
2018-09-10T13:53:57.987Z,22.90
2018-09-10T13:55:02.366Z,22.90
2018-09-10T13:56:07.101Z,22.90
2018-09-10T13:57:12.419Z,22.90
2018-09-10T13:58:16.698Z,22.90
2018-09-10T13:59:21.258Z,22.90
2018-09-10T14:00:43.665Z,22.90
2018-09-10T14:01:49.375Z,22.90
2018-09-10T14:02:56.527Z,22.90
2018-09-10T14:04:02.387Z,22.90
2018-09-10T14:05:08.346Z,22.90
2018-09-10T14:06:12.640Z,22.90
2018-09-10T14:07:17.217Z,22.70
2018-09-10T14:08:22.223Z,22.90
2018-09-10T14:09:26.479Z,22.90
2018-09-10T14:10:31.660Z,22.90
2018-09-10T14:11:36.404Z,22.90
2018-09-10T14:12:40.941Z,22.80
2018-09-10T14:13:46.262Z,22.80
2018-09-10T14:14:52.183Z,22.80
2018-09-10T14:15:56.190Z,22.80